createdAt,value
2019-05-21T00:03:02.957Z,14.92
2019-05-21T00:06:09.381Z,14.99
2019-05-21T00:09:15.675Z,14.95
2019-05-21T00:12:22.072Z,14.89
2019-05-21T00:15:28.507Z,14.79
2019-05-21T00:18:34.968Z,14.75
2019-05-21T00:21:41.395Z,14.79
2019-05-21T00:24:48.029Z,14.71
2019-05-21T00:27:59.784Z,14.72
2019-05-21T00:31:44.011Z,14.62
2019-05-21T00:35:28.629Z,14.70
2019-05-21T00:39:11.534Z,14.61
2019-05-21T00:42:28.609Z,14.53
2019-05-21T00:45:34.903Z,14.60
2019-05-21T00:48:41.317Z,14.61
2019-05-21T00:51:47.915Z,14.60
2019-05-21T00:54:54.797Z,14.58
2019-05-21T00:58:01.553Z,14.56
2019-05-21T01:01:08.114Z,14.57
2019-05-21T01:04:15.701Z,14.45
2019-05-21T01:07:23.149Z,14.41
2019-05-21T01:10:29.713Z,14.47
2019-05-21T01:13:36.563Z,14.37
2019-05-21T01:16:43.193Z,14.34
2019-05-21T01:19:49.581Z,14.32
2019-05-21T01:22:55.980Z,14.32
2019-05-21T01:26:02.583Z,14.26
2019-05-21T01:29:09.139Z,14.21
2019-05-21T01:32:15.510Z,14.28
2019-05-21T01:35:22.069Z,14.23
2019-05-21T01:38:29.511Z,14.29
2019-05-21T01:41:35.996Z,14.22
2019-05-21T01:44:42.425Z,14.20
2019-05-21T01:47:49.113Z,14.19
2019-05-21T01:50:55.456Z,14.11
2019-05-21T01:54:03.026Z,14.12
2019-05-21T01:57:09.366Z,14.14
2019-05-21T02:00:15.912Z,14.09
2019-05-21T02:03:22.520Z,14.08
2019-05-21T02:06:29.153Z,13.99
2019-05-21T02:09:55.507Z,13.99
2019-05-21T02:13:01.935Z,14.05
2019-05-21T02:16:08.268Z,14.04
2019-05-21T02:19:14.786Z,14.01
2019-05-21T02:22:21.223Z,14.05
2019-05-21T02:25:27.572Z,13.95
2019-05-21T02:28:33.917Z,13.99
2019-05-21T02:31:40.456Z,14.00
2019-05-21T02:34:46.984Z,14.00
2019-05-21T02:37:53.335Z,13.95
2019-05-21T02:40:59.692Z,13.92
2019-05-21T02:44:24.266Z,13.98
2019-05-21T02:47:30.753Z,13.97
2019-05-21T02:50:37.288Z,13.98
2019-05-21T02:53:44.583Z,13.98
2019-05-21T02:56:51.078Z,13.95
2019-05-21T02:59:59.144Z,13.97
2019-05-21T03:03:06.481Z,13.95
2019-05-21T03:06:15.076Z,13.94
2019-05-21T03:09:21.977Z,13.86
2019-05-21T03:12:28.439Z,13.90
2019-05-21T03:15:34.868Z,13.84
2019-05-21T03:18:41.232Z,13.84
2019-05-21T03:21:47.664Z,13.86
2019-05-21T03:24:54.076Z,13.86
2019-05-21T03:28:00.533Z,13.90
2019-05-21T03:31:06.886Z,13.86
2019-05-21T03:34:13.331Z,13.89
2019-05-21T03:37:19.897Z,13.89
2019-05-21T03:40:26.368Z,13.90
2019-05-21T03:43:32.633Z,13.89
2019-05-21T03:46:39.107Z,13.87
2019-05-21T03:49:45.474Z,13.88
2019-05-21T03:52:52.974Z,13.78
2019-05-21T03:55:59.313Z,13.78
2019-05-21T03:59:06.002Z,13.84
2019-05-21T04:02:12.408Z,13.85
2019-05-21T04:05:24.918Z,13.80
2019-05-21T04:08:31.319Z,13.81
2019-05-21T04:11:37.938Z,13.84
2019-05-21T04:14:50.762Z,13.86
2019-05-21T04:18:02.962Z,13.87
2019-05-21T04:21:09.337Z,13.89
2019-05-21T04:24:15.797Z,13.89
2019-05-21T04:27:22.340Z,13.92
2019-05-21T04:30:28.780Z,13.86
2019-05-21T04:33:35.059Z,13.86
2019-05-21T04:36:41.522Z,13.91
2019-05-21T04:39:47.931Z,13.93
2019-05-21T04:42:54.320Z,13.94
2019-05-21T04:46:00.561Z,13.88
2019-05-21T04:49:07.039Z,13.91
2019-05-21T04:52:13.394Z,13.93
2019-05-21T04:55:20.030Z,13.96
2019-05-21T04:58:26.428Z,13.98
2019-05-21T05:01:32.997Z,14.01
2019-05-21T05:04:39.407Z,14.02
2019-05-21T05:07:46.263Z,14.04
2019-05-21T05:10:52.945Z,14.05
2019-05-21T05:13:59.562Z,14.05
2019-05-21T05:17:06.073Z,14.11
2019-05-21T05:20:12.726Z,14.13
2019-05-21T05:23:19.046Z,14.17
2019-05-21T05:26:27.595Z,14.19
2019-05-21T05:29:34.066Z,14.21
2019-05-21T05:32:51.375Z,14.28
2019-05-21T05:35:57.741Z,14.25
2019-05-21T05:39:05.696Z,14.28
2019-05-21T05:42:12.247Z,14.30
2019-05-21T05:45:18.948Z,14.34
2019-05-21T05:48:25.806Z,14.37
2019-05-21T05:51:32.974Z,14.41
2019-05-21T05:54:40.515Z,14.43
2019-05-21T05:57:46.905Z,14.48
2019-05-21T06:00:53.286Z,14.49
2019-05-21T06:03:59.932Z,14.52
2019-05-21T06:07:06.338Z,14.54
2019-05-21T06:10:13.938Z,14.60
2019-05-21T06:13:20.537Z,14.63
2019-05-21T06:16:27.840Z,14.66
2019-05-21T06:19:34.256Z,14.72
2019-05-21T06:22:40.952Z,14.77
2019-05-21T06:25:47.298Z,14.83
2019-05-21T06:28:53.649Z,14.85
2019-05-21T06:32:00.281Z,14.89
2019-05-21T06:35:07.013Z,14.94
2019-05-21T06:38:17.844Z,14.99
2019-05-21T06:41:21.644Z,15.10
2019-05-21T06:44:28.218Z,15.12
2019-05-21T06:47:34.655Z,15.14
2019-05-21T06:50:41.023Z,15.19
2019-05-21T06:53:47.389Z,15.27
2019-05-21T06:56:53.963Z,15.27
2019-05-21T07:00:00.588Z,15.36
2019-05-21T07:03:07.039Z,15.43
2019-05-21T07:06:14.402Z,15.51
2019-05-21T07:09:20.901Z,15.62
2019-05-21T07:12:27.632Z,15.65
2019-05-21T07:15:34.503Z,15.68
2019-05-21T07:18:41.650Z,15.76
2019-05-21T07:21:48.326Z,15.91
2019-05-21T07:24:54.819Z,15.92
2019-05-21T07:28:01.169Z,15.92
2019-05-21T07:31:07.638Z,16.05
2019-05-21T07:34:14.180Z,16.17
2019-05-21T07:37:20.886Z,16.25
2019-05-21T07:40:27.338Z,16.38
2019-05-21T07:43:33.863Z,16.52
2019-05-21T07:46:40.578Z,16.72
2019-05-21T07:49:47.049Z,16.76
2019-05-21T07:52:53.386Z,17.00
2019-05-21T07:56:00.618Z,17.18
2019-05-21T07:59:07.110Z,17.28
2019-05-21T08:02:13.544Z,17.41
2019-05-21T08:05:21.069Z,17.54
2019-05-21T08:08:28.560Z,17.59
2019-05-21T08:11:35.062Z,18.03
2019-05-21T08:14:41.738Z,18.03
2019-05-21T08:17:48.908Z,18.27
2019-05-21T08:20:55.396Z,18.56
2019-05-21T08:24:03.076Z,18.63
2019-05-21T08:27:09.449Z,18.74
2019-05-21T08:30:16.047Z,19.10
2019-05-21T08:33:22.480Z,19.16
2019-05-21T08:36:29.080Z,19.16
2019-05-21T08:39:35.540Z,19.23
2019-05-21T08:42:41.895Z,19.36
2019-05-21T08:45:48.382Z,19.49
2019-05-21T08:48:54.987Z,19.62
2019-05-21T08:52:01.487Z,19.68
2019-05-21T08:55:08.107Z,19.65
2019-05-21T08:58:14.721Z,19.58
2019-05-21T09:01:21.223Z,19.59
2019-05-21T09:04:45.405Z,19.65
2019-05-21T09:07:36.229Z,19.66
2019-05-21T09:10:43.526Z,19.68
2019-05-21T09:13:50.091Z,19.72
2019-05-21T09:16:56.698Z,19.80
2019-05-21T09:20:03.413Z,19.84
2019-05-21T09:23:09.986Z,19.94
2019-05-21T09:26:16.482Z,19.93
2019-05-21T09:29:23.264Z,20.00
2019-05-21T09:32:29.714Z,20.07
2019-05-21T09:35:36.268Z,20.11
2019-05-21T09:38:42.820Z,20.21
2019-05-21T09:41:49.309Z,20.20
2019-05-21T09:44:55.736Z,20.25
2019-05-21T09:48:02.295Z,20.32
2019-05-21T09:51:08.780Z,20.45
2019-05-21T09:54:15.277Z,20.48
2019-05-21T09:57:28.922Z,20.60
2019-05-21T10:00:56.988Z,20.66
2019-05-21T10:04:03.729Z,21.07
2019-05-21T10:07:10.487Z,21.04
2019-05-21T10:10:17.024Z,20.99
2019-05-21T10:13:23.551Z,21.05
2019-05-21T10:16:30.058Z,21.34
2019-05-21T10:19:36.859Z,21.36
2019-05-21T10:22:43.506Z,21.69
2019-05-21T10:25:50.406Z,21.74
2019-05-21T10:28:56.833Z,21.59
2019-05-21T10:32:03.339Z,21.66
2019-05-21T10:35:09.764Z,21.87
2019-05-21T10:38:16.302Z,22.22
2019-05-21T10:41:22.885Z,22.17
2019-05-21T10:44:29.494Z,22.05
2019-05-21T10:47:35.963Z,22.20
2019-05-21T10:50:42.395Z,22.24
2019-05-21T10:53:49.106Z,22.24
2019-05-21T10:56:55.578Z,22.45
2019-05-21T11:00:02.229Z,22.69
2019-05-21T11:03:13.782Z,22.69
2019-05-21T11:06:20.419Z,22.66
2019-05-21T11:09:27.024Z,22.71
2019-05-21T11:12:33.465Z,22.66
2019-05-21T11:15:40.022Z,22.78
2019-05-21T11:18:46.578Z,22.86
2019-05-21T11:21:53.351Z,22.95
2019-05-21T11:25:00.023Z,22.95
2019-05-21T11:28:06.588Z,23.06
2019-05-21T11:31:13.181Z,23.19
2019-05-21T11:34:19.769Z,23.30
2019-05-21T11:37:26.219Z,23.29
2019-05-21T11:40:32.797Z,23.38
2019-05-21T11:43:39.346Z,23.44
2019-05-21T11:46:45.930Z,23.56
2019-05-21T11:49:52.364Z,23.60
2019-05-21T11:52:58.875Z,23.77
2019-05-21T11:56:05.388Z,23.95
2019-05-21T11:59:11.894Z,23.93
2019-05-21T12:02:18.352Z,24.00
2019-05-21T12:05:24.871Z,24.01
2019-05-21T12:08:31.346Z,24.10
2019-05-21T12:11:38.067Z,24.10
2019-05-21T12:14:44.597Z,24.28
2019-05-21T12:17:51.088Z,24.28
2019-05-21T12:20:57.512Z,24.35
2019-05-21T12:24:04.158Z,24.41
2019-05-21T12:27:10.730Z,24.43
2019-05-21T12:30:17.583Z,24.54
2019-05-21T12:33:24.152Z,24.72
2019-05-21T12:36:30.539Z,24.77
2019-05-21T12:39:36.902Z,24.84
2019-05-21T12:42:43.435Z,24.95
2019-05-21T12:45:50.043Z,25.03
2019-05-21T12:48:56.668Z,25.08
2019-05-21T12:52:03.204Z,25.26
2019-05-21T12:55:09.788Z,25.38
2019-05-21T12:58:16.474Z,25.48
2019-05-21T13:01:23.092Z,25.48
2019-05-21T13:04:29.643Z,25.67
2019-05-21T13:07:36.239Z,25.83
2019-05-21T13:10:42.744Z,25.92
2019-05-21T13:13:49.139Z,26.04
2019-05-21T13:16:55.613Z,26.18
2019-05-21T13:20:02.689Z,26.27
2019-05-21T13:23:11.279Z,26.29
2019-05-21T13:26:18.675Z,26.27
2019-05-21T13:29:25.384Z,26.16
2019-05-21T13:32:31.938Z,26.19
2019-05-21T13:35:38.565Z,26.30
2019-05-21T13:38:45.408Z,26.31
2019-05-21T13:41:52.987Z,26.33
2019-05-21T13:44:59.622Z,26.36
2019-05-21T13:48:06.206Z,26.27
2019-05-21T13:51:12.682Z,26.33
2019-05-21T13:54:19.207Z,26.39
2019-05-21T13:57:25.741Z,26.50
2019-05-21T14:00:45.433Z,26.60
2019-05-21T14:03:51.981Z,26.71
2019-05-21T14:06:58.479Z,26.74
2019-05-21T14:10:16.766Z,26.66
2019-05-21T14:13:13.500Z,26.77
2019-05-21T14:16:20.262Z,26.70
2019-05-21T14:19:26.858Z,26.70
2019-05-21T14:22:36.587Z,26.77
2019-05-21T14:25:44.266Z,26.73
2019-05-21T14:28:51.177Z,26.73
2019-05-21T14:31:57.929Z,26.67
2019-05-21T14:35:04.501Z,26.59
2019-05-21T14:38:12.087Z,26.58
2019-05-21T14:41:18.776Z,26.52
2019-05-21T14:44:25.217Z,26.47
2019-05-21T14:47:31.650Z,26.30
2019-05-21T14:50:38.221Z,26.18
2019-05-21T14:53:44.673Z,26.14
2019-05-21T14:56:51.143Z,26.05
2019-05-21T14:59:57.707Z,25.94
2019-05-21T15:03:04.313Z,25.94
2019-05-21T15:06:10.771Z,25.88
2019-05-21T15:09:17.526Z,25.98
2019-05-21T15:12:24.111Z,25.98
2019-05-21T15:15:30.744Z,25.92
2019-05-21T15:18:37.260Z,25.88
2019-05-21T15:21:49.004Z,25.98
2019-05-21T15:24:55.914Z,25.98
2019-05-21T15:28:03.434Z,26.04
2019-05-21T15:31:10.255Z,26.00
2019-05-21T15:34:16.786Z,26.02
2019-05-21T15:37:23.387Z,25.97
2019-05-21T15:40:29.923Z,25.91
2019-05-21T15:43:36.393Z,25.85
2019-05-21T15:46:49.828Z,25.80
2019-05-21T15:49:50.986Z,25.82
2019-05-21T15:52:57.526Z,25.79
2019-05-21T15:56:04.005Z,25.76
2019-05-21T15:59:10.423Z,25.69
2019-05-21T16:02:17.042Z,25.66
2019-05-21T16:05:23.480Z,25.54
2019-05-21T16:08:30.093Z,25.52
2019-05-21T16:11:36.698Z,25.51
2019-05-21T16:14:43.157Z,25.42
2019-05-21T16:17:49.663Z,25.42
2019-05-21T16:20:56.468Z,25.25
2019-05-21T16:24:03.091Z,25.23
2019-05-21T16:27:09.542Z,25.30
2019-05-21T16:30:16.140Z,25.22
2019-05-21T16:33:23.872Z,25.24
2019-05-21T16:36:30.564Z,25.18
2019-05-21T16:39:36.945Z,25.07
2019-05-21T16:42:43.579Z,25.06
2019-05-21T16:45:50.065Z,24.94
2019-05-21T16:48:56.408Z,24.85
2019-05-21T16:52:03.157Z,24.73
2019-05-21T16:55:11.806Z,24.67
2019-05-21T16:58:18.312Z,24.56
2019-05-21T17:01:25.004Z,24.44
2019-05-21T17:04:31.358Z,24.26
2019-05-21T17:07:37.845Z,24.19
2019-05-21T17:10:45.417Z,24.06
2019-05-21T17:13:51.763Z,24.07
2019-05-21T17:16:58.457Z,23.95
2019-05-21T17:20:06.146Z,23.82
2019-05-21T17:23:12.581Z,23.73
2019-05-21T17:26:18.923Z,23.43
2019-05-21T17:29:25.789Z,23.43
2019-05-21T17:32:32.500Z,23.34
2019-05-21T17:35:39.326Z,23.26
2019-05-21T17:38:46.087Z,23.20
2019-05-21T17:41:52.749Z,23.02
2019-05-21T17:45:01.925Z,22.98
2019-05-21T17:48:08.424Z,22.85
2019-05-21T17:51:18.359Z,22.71
2019-05-21T17:55:21.996Z,22.47
2019-05-21T17:57:47.635Z,22.38
2019-05-21T18:01:00.208Z,22.28
2019-05-21T18:04:06.728Z,22.18
2019-05-21T18:07:16.284Z,22.06
2019-05-21T18:10:23.018Z,22.02
2019-05-21T18:13:29.710Z,21.94
2019-05-21T18:16:38.810Z,21.91
2019-05-21T18:19:46.034Z,21.74
2019-05-21T18:22:54.206Z,21.74
2019-05-21T18:26:00.654Z,21.55
2019-05-21T18:29:08.203Z,21.51
2019-05-21T18:32:14.747Z,21.36
2019-05-21T18:35:22.704Z,21.42
2019-05-21T18:38:30.438Z,21.39
2019-05-21T18:41:37.185Z,21.27
2019-05-21T18:44:43.790Z,21.19
2019-05-21T18:47:50.260Z,21.07
2019-05-21T18:50:56.779Z,21.05
2019-05-21T18:54:05.972Z,21.00
2019-05-21T18:57:12.640Z,20.66
2019-05-21T19:00:19.907Z,20.70
2019-05-21T19:03:28.046Z,20.55
2019-05-21T19:06:36.436Z,20.59
2019-05-21T19:09:45.878Z,20.42
2019-05-21T19:12:52.355Z,20.42
2019-05-21T19:16:00.149Z,20.41
2019-05-21T19:19:06.571Z,20.40
2019-05-21T19:22:17.993Z,20.40
2019-05-21T19:25:24.537Z,20.32
2019-05-21T19:28:31.144Z,20.21
2019-05-21T19:31:37.721Z,20.16
2019-05-21T19:34:44.220Z,19.98
2019-05-21T19:37:55.009Z,20.08
2019-05-21T19:41:04.346Z,20.02
2019-05-21T19:44:10.818Z,19.93
2019-05-21T19:47:17.335Z,19.78
2019-05-21T19:50:23.956Z,19.67
2019-05-21T19:53:32.207Z,19.61
2019-05-21T19:56:38.765Z,19.57
2019-05-21T19:59:51.544Z,19.57
2019-05-21T20:02:57.667Z,19.47
2019-05-21T20:06:04.611Z,19.44
2019-05-21T20:09:14.765Z,19.37
2019-05-21T20:12:21.975Z,19.15
2019-05-21T20:15:30.039Z,19.15
2019-05-21T20:18:37.622Z,19.16
2019-05-21T20:21:46.859Z,19.11
2019-05-21T20:24:53.335Z,19.11
2019-05-21T20:28:00.543Z,19.05
2019-05-21T20:31:08.210Z,18.97
2019-05-21T20:34:14.806Z,18.92
2019-05-21T20:37:26.340Z,18.89
2019-05-21T20:40:32.868Z,18.89
2019-05-21T20:43:40.127Z,18.81
2019-05-21T20:46:46.748Z,18.77
2019-05-21T20:49:53.950Z,18.68
2019-05-21T20:53:00.460Z,18.67
2019-05-21T20:56:07.947Z,18.59
2019-05-21T20:59:14.511Z,18.53
2019-05-21T21:02:20.989Z,18.53
2019-05-21T21:05:27.635Z,18.58
2019-05-21T21:08:36.545Z,18.55
2019-05-21T21:11:43.223Z,18.51
2019-05-21T21:14:50.650Z,18.47
2019-05-21T21:17:59.134Z,18.54
2019-05-21T21:21:05.987Z,18.46
2019-05-21T21:24:13.289Z,18.48
2019-05-21T21:27:20.099Z,18.44
2019-05-21T21:30:27.753Z,18.33
2019-05-21T21:33:34.464Z,18.23
2019-05-21T21:36:40.858Z,18.28
2019-05-21T21:39:47.481Z,18.24
2019-05-21T21:42:54.080Z,18.20
2019-05-21T21:46:00.679Z,18.11
2019-05-21T21:49:09.250Z,18.09
2019-05-21T21:52:16.449Z,18.11
2019-05-21T21:55:22.889Z,18.12
2019-05-21T21:58:29.376Z,18.06
2019-05-21T22:02:10.344Z,18.03
2019-05-21T22:05:17.142Z,18.01
2019-05-21T22:08:24.236Z,17.82
2019-05-21T22:11:31.025Z,17.82
2019-05-21T22:14:50.385Z,17.94
2019-05-21T22:17:47.035Z,17.93
2019-05-21T22:20:53.928Z,17.85
2019-05-21T22:24:00.495Z,17.87
2019-05-21T22:27:07.028Z,17.91
2019-05-21T22:30:13.879Z,17.92
2019-05-21T22:33:21.055Z,17.91
2019-05-21T22:36:27.515Z,17.84
2019-05-21T22:39:34.131Z,17.84
2019-05-21T22:42:41.066Z,17.82
2019-05-21T22:45:47.594Z,17.77
2019-05-21T22:48:54.495Z,17.72
2019-05-21T22:52:01.284Z,17.71
2019-05-21T22:55:07.891Z,17.65
2019-05-21T22:58:15.419Z,17.54
2019-05-21T23:01:24.023Z,17.61
2019-05-21T23:04:30.552Z,17.64
2019-05-21T23:07:38.641Z,17.67
2019-05-21T23:10:45.282Z,17.61
2019-05-21T23:13:51.771Z,17.55
2019-05-21T23:17:00.211Z,17.47
2019-05-21T23:20:10.163Z,17.51
2019-05-21T23:23:19.324Z,17.44
2019-05-21T23:26:25.893Z,17.51
2019-05-21T23:29:32.357Z,17.47
2019-05-21T23:32:39.012Z,17.48
2019-05-21T23:35:45.827Z,17.38
2019-05-21T23:38:52.784Z,17.38
2019-05-21T23:41:59.610Z,17.40
2019-05-21T23:45:08.024Z,17.39
2019-05-21T23:48:16.061Z,17.40
2019-05-21T23:51:22.873Z,17.39
2019-05-21T23:54:29.479Z,17.35
2019-05-21T23:57:37.163Z,17.26
